Time;durP1;ratioP1;P1;durP2;ratioP2;P2;SDS_P1;SDS_P2;PMS_P1;PMS_P2;Temp;Humidity;BMP_temperature;BMP_pressure;BME280_temperature;BME280_humidity;BME280_pressure;Samples;Min_cycle;Max_cycle;Signal;HPM_P1;HPM_P2
2022/08/05 00:00:59;;;;;;;;;;;17.60;99.90;;;;;;5040085;28;20808;-59
2022/08/05 00:03:25;;;;;;;;;;;17.60;99.90;;;;;;5046017;28;19925;-59
2022/08/05 00:05:50;;;;;;;;;;;17.60;99.90;;;;;;5042403;28;19916;-59
2022/08/05 00:08:16;;;;;;;;;;;17.70;99.90;;;;;;5046176;28;20066;-59
2022/08/05 00:10:41;;;;;;;;;;;17.60;99.90;;;;;;5047939;28;19960;-58
2022/08/05 00:13:07;;;;;;;;;;;17.70;99.90;;;;;;5041117;28;19917;-59
2022/08/05 00:15:32;;;;;;;;;;;17.60;99.90;;;;;;5049116;28;19920;-60
2022/08/05 00:17:58;;;;;;;;;;;17.70;99.90;;;;;;5047306;28;19921;-58
2022/08/05 00:20:23;;;;;;;;;;;17.70;99.90;;;;;;5044106;28;19927;-60
2022/08/05 00:22:49;;;;;;;;;;;17.80;99.90;;;;;;5046988;28;20514;-59
2022/08/05 00:25:14;;;;;;;;;;;17.70;99.90;;;;;;5045475;28;21489;-59
2022/08/05 00:27:40;;;;;;;;;;;17.70;99.90;;;;;;5047953;28;19916;-59
2022/08/05 00:30:05;;;;;;;;;;;17.80;99.90;;;;;;5045050;28;19935;-59
2022/08/05 00:32:31;;;;;;;;;;;17.80;99.90;;;;;;5028683;28;20018;-60
2022/08/05 00:34:56;;;;;;;;;;;17.70;99.90;;;;;;5045928;28;19921;-59
2022/08/05 00:37:22;;;;;;;;;;;17.70;99.90;;;;;;5044523;28;20360;-59
2022/08/05 00:39:47;;;;;;;;;;;17.80;99.90;;;;;;5050527;28;19999;-59
2022/08/05 00:42:15;;;;;;;;;;;17.70;99.90;;;;;;5045350;28;20349;-59
2022/08/05 00:44:41;;;;;;;;;;;17.70;99.90;;;;;;5044493;28;19923;-59
2022/08/05 00:47:06;;;;;;;;;;;17.80;99.90;;;;;;5045448;28;19921;-60
2022/08/05 00:49:32;;;;;;;;;;;17.80;99.90;;;;;;5045252;28;19962;-59
2022/08/05 00:51:57;;;;;;;;;;;17.70;99.90;;;;;;5044292;28;20406;-59
2022/08/05 00:54:23;;;;;;;;;;;17.70;99.90;;;;;;5047790;28;20379;-59
2022/08/05 00:56:48;;;;;;;;;;;17.70;99.90;;;;;;5049235;28;19916;-58
2022/08/05 00:59:14;;;;;;;;;;;17.70;99.90;;;;;;5024276;28;20360;-58
2022/08/05 01:01:40;;;;;;;;;;;17.70;99.90;;;;;;5018095;28;19928;-60
2022/08/05 01:04:05;;;;;;;;;;;17.70;99.90;;;;;;5026077;28;19921;-59
2022/08/05 01:06:31;;;;;;;;;;;17.70;99.90;;;;;;5025271;28;19917;-59
2022/08/05 01:08:56;;;;;;;;;;;17.70;99.90;;;;;;5027603;28;21791;-59
2022/08/05 01:11:25;;;;;;;;;;;17.60;99.90;;;;;;5000247;28;20019;-59
2022/08/05 01:14:10;;;;;;;;;;;17.70;99.90;;;;;;5024737;28;19971;-59
2022/08/05 01:16:42;;;;;;;;;;;17.60;99.90;;;;;;5023082;28;19921;-59
2022/08/05 01:19:13;;;;;;;;;;;17.60;99.90;;;;;;5022548;28;19921;-59
2022/08/05 01:21:51;;;;;;;;;;;17.60;99.90;;;;;;5026172;28;19925;-59
2022/08/05 01:24:19;;;;;;;;;;;17.60;99.90;;;;;;5014297;28;20027;-59
2022/08/05 01:27:11;;;;;;;;;;;17.70;99.90;;;;;;5025511;28;20063;-60
2022/08/05 01:29:39;;;;;;;;;;;17.70;99.90;;;;;;5020356;28;19917;-60
2022/08/05 01:32:06;;;;;;;;;;;17.80;99.90;;;;;;5021645;28;19924;-59
2022/08/05 01:34:44;;;;;;;;;;;17.70;99.90;;;;;;5023643;28;19939;-59
2022/08/05 01:37:14;;;;;;;;;;;17.70;99.90;;;;;;5029289;28;19939;-59
2022/08/05 01:39:41;;;;;;;;;;;17.70;99.90;;;;;;5026346;28;20427;-59
2022/08/05 01:42:09;;;;;;;;;;;17.70;99.90;;;;;;5026445;28;19929;-59
2022/08/05 01:44:35;;;;;;;;;;;17.70;99.90;;;;;;5026238;28;19921;-60
2022/08/05 01:47:01;;;;;;;;;;;17.70;99.90;;;;;;5026135;28;19921;-59
2022/08/05 01:49:28;;;;;;;;;;;17.70;99.90;;;;;;5023809;28;19924;-60
2022/08/05 01:51:58;;;;;;;;;;;17.70;99.90;;;;;;5023662;28;20296;-59
2022/08/05 01:54:25;;;;;;;;;;;17.70;99.90;;;;;;5027289;28;19917;-59
2022/08/05 01:56:52;;;;;;;;;;;17.70;99.90;;;;;;5027272;28;19928;-59
2022/08/05 01:59:20;;;;;;;;;;;17.70;99.90;;;;;;5030477;28;19921;-59
2022/08/05 02:01:46;;;;;;;;;;;17.70;99.90;;;;;;5048654;28;20295;-59
2022/08/05 02:04:13;;;;;;;;;;;17.70;99.90;;;;;;5039716;28;19924;-59
2022/08/05 02:06:39;;;;;;;;;;;17.70;99.90;;;;;;5045747;28;19928;-59
2022/08/05 02:09:05;;;;;;;;;;;17.70;99.90;;;;;;5047727;28;19920;-59
2022/08/05 02:11:36;;;;;;;;;;;17.70;99.90;;;;;;5051843;28;19923;-59
2022/08/05 02:14:06;;;;;;;;;;;17.80;99.90;;;;;;5049586;28;19971;-60
2022/08/05 02:16:43;;;;;;;;;;;17.80;99.90;;;;;;5045958;28;20323;-59
2022/08/05 02:19:19;;;;;;;;;;;17.80;99.90;;;;;;5049551;28;20008;-59
2022/08/05 02:21:51;;;;;;;;;;;17.80;99.90;;;;;;5042459;28;19920;-59
2022/08/05 02:24:18;;;;;;;;;;;17.80;99.90;;;;;;5049226;28;20375;-60
2022/08/05 02:26:48;;;;;;;;;;;17.80;99.90;;;;;;5051145;28;20401;-59
2022/08/05 02:29:17;;;;;;;;;;;17.70;99.90;;;;;;5043040;28;19948;-59
2022/08/05 02:31:43;;;;;;;;;;;17.70;99.90;;;;;;5049366;28;19967;-59
2022/08/05 02:34:12;;;;;;;;;;;17.70;99.90;;;;;;5030361;28;19916;-59
2022/08/05 02:36:47;;;;;;;;;;;17.70;99.90;;;;;;5046415;28;20331;-60
2022/08/05 02:39:15;;;;;;;;;;;17.70;99.90;;;;;;5050951;28;19963;-60
2022/08/05 02:41:41;;;;;;;;;;;17.70;99.90;;;;;;5049773;28;20381;-60
2022/08/05 02:44:07;;;;;;;;;;;17.60;99.90;;;;;;5049191;28;19920;-59
2022/08/05 02:46:37;;;;;;;;;;;17.70;99.90;;;;;;5032924;28;19921;-59
2022/08/05 02:49:04;;;;;;;;;;;17.70;99.90;;;;;;5045992;28;19931;-58
2022/08/05 02:51:30;;;;;;;;;;;17.60;99.90;;;;;;5049032;28;20402;-60
2022/08/05 02:53:56;;;;;;;;;;;17.60;99.90;;;;;;5047172;28;19920;-59
2022/08/05 02:56:22;;;;;;;;;;;17.60;99.90;;;;;;5048363;28;20308;-60
2022/08/05 02:58:48;;;;;;;;;;;17.70;99.90;;;;;;5047164;28;19970;-59
2022/08/05 03:01:16;;;;;;;;;;;17.70;99.90;;;;;;5048277;28;20019;-59
2022/08/05 03:03:42;;;;;;;;;;;17.70;99.90;;;;;;5030926;28;19916;-59
2022/08/05 03:06:09;;;;;;;;;;;17.70;99.90;;;;;;5047118;28;19970;-59
2022/08/05 03:08:36;;;;;;;;;;;17.70;99.90;;;;;;5040859;28;19920;-59
2022/08/05 03:11:01;;;;;;;;;;;17.70;99.90;;;;;;5047081;28;20284;-59
2022/08/05 03:13:27;;;;;;;;;;;17.70;99.90;;;;;;5028311;28;19917;-59
2022/08/05 03:15:52;;;;;;;;;;;17.70;99.90;;;;;;5049090;28;20007;-59
2022/08/05 03:18:18;;;;;;;;;;;17.70;99.90;;;;;;5047294;28;20356;-59
2022/08/05 03:20:43;;;;;;;;;;;17.70;99.90;;;;;;5046062;28;19923;-60
2022/08/05 03:23:09;;;;;;;;;;;17.70;99.90;;;;;;5048996;28;19917;-59
2022/08/05 03:25:36;;;;;;;;;;;17.70;99.90;;;;;;5044206;28;19916;-59
2022/08/05 03:28:05;;;;;;;;;;;17.70;99.90;;;;;;5048336;28;19920;-59
2022/08/05 03:30:31;;;;;;;;;;;17.70;99.90;;;;;;5047702;28;20284;-59
2022/08/05 03:32:58;;;;;;;;;;;17.70;99.90;;;;;;5048803;28;19970;-60
2022/08/05 03:35:24;;;;;;;;;;;17.70;99.90;;;;;;5045146;28;20447;-59
2022/08/05 03:37:50;;;;;;;;;;;17.60;99.90;;;;;;5033471;28;19974;-60
2022/08/05 03:40:15;;;;;;;;;;;17.60;99.90;;;;;;5029707;28;19948;-60
2022/08/05 03:42:41;;;;;;;;;;;17.60;99.90;;;;;;5047208;28;19925;-59
2022/08/05 03:45:08;;;;;;;;;;;17.60;99.90;;;;;;5049257;28;19964;-59
2022/08/05 03:47:33;;;;;;;;;;;17.60;99.90;;;;;;5048367;28;19959;-59
2022/08/05 03:49:59;;;;;;;;;;;17.60;99.90;;;;;;5046980;28;20368;-59
2022/08/05 03:52:28;;;;;;;;;;;17.60;99.90;;;;;;5050870;28;19991;-59
2022/08/05 03:54:59;;;;;;;;;;;17.60;99.90;;;;;;5049177;28;19917;-59
2022/08/05 03:57:28;;;;;;;;;;;17.60;99.90;;;;;;5046068;28;20012;-60
2022/08/05 04:00:00;;;;;;;;;;;17.60;99.90;;;;;;5048135;28;19960;-60
2022/08/05 04:02:28;;;;;;;;;;;17.50;99.90;;;;;;5030425;28;20360;-59
2022/08/05 04:04:54;;;;;;;;;;;17.50;99.90;;;;;;5047775;28;19959;-59
2022/08/05 04:07:20;;;;;;;;;;;17.50;99.90;;;;;;5042532;28;19931;-59
2022/08/05 04:09:46;;;;;;;;;;;17.50;99.90;;;;;;5047667;28;19924;-60
2022/08/05 04:12:11;;;;;;;;;;;17.50;99.90;;;;;;5045488;28;19931;-59
2022/08/05 04:14:37;;;;;;;;;;;17.50;99.90;;;;;;5011089;28;19917;-59
2022/08/05 04:17:02;;;;;;;;;;;17.50;99.90;;;;;;5050536;28;19920;-59
2022/08/05 04:19:28;;;;;;;;;;;17.40;99.90;;;;;;5045995;28;20000;-59
2022/08/05 04:21:53;;;;;;;;;;;17.50;99.90;;;;;;5046769;28;19928;-60
2022/08/05 04:24:19;;;;;;;;;;;17.50;99.90;;;;;;5049284;28;19916;-59
2022/08/05 04:26:44;;;;;;;;;;;17.50;99.90;;;;;;5046213;28;19923;-60
2022/08/05 04:29:10;;;;;;;;;;;17.50;99.90;;;;;;5040556;28;19916;-59
2022/08/05 04:31:36;;;;;;;;;;;17.50;99.90;;;;;;5046893;28;20380;-60
2022/08/05 04:34:02;;;;;;;;;;;17.50;99.90;;;;;;5048595;28;19921;-59
2022/08/05 04:36:27;;;;;;;;;;;17.50;99.90;;;;;;5046790;28;19916;-59
2022/08/05 04:38:53;;;;;;;;;;;17.50;99.90;;;;;;5046151;28;19917;-59
2022/08/05 04:41:19;;;;;;;;;;;17.50;99.90;;;;;;5044885;28;19925;-59
2022/08/05 04:43:45;;;;;;;;;;;17.50;99.90;;;;;;5046894;28;20484;-60
2022/08/05 04:46:10;;;;;;;;;;;17.50;99.90;;;;;;5045302;28;20374;-60
2022/08/05 04:48:36;;;;;;;;;;;17.50;99.90;;;;;;5042083;28;19931;-60
2022/08/05 04:51:01;;;;;;;;;;;17.50;99.90;;;;;;5044438;28;19951;-59
2022/08/05 04:53:27;;;;;;;;;;;17.50;99.90;;;;;;5048520;28;19960;-59
2022/08/05 04:55:53;;;;;;;;;;;17.60;99.90;;;;;;5046047;28;20003;-59
2022/08/05 04:58:18;;;;;;;;;;;17.50;99.90;;;;;;5046158;28;20439;-59
2022/08/05 05:00:44;;;;;;;;;;;17.50;99.90;;;;;;5039277;28;19943;-59
2022/08/05 05:03:10;;;;;;;;;;;17.60;99.90;;;;;;5046876;28;19924;-60
2022/08/05 05:05:36;;;;;;;;;;;17.50;99.90;;;;;;5044647;28;20004;-59
2022/08/05 05:08:05;;;;;;;;;;;17.60;99.90;;;;;;5043985;28;19916;-60
2022/08/05 05:10:32;;;;;;;;;;;17.60;99.90;;;;;;5044111;28;20284;-59
2022/08/05 05:12:58;;;;;;;;;;;17.60;99.90;;;;;;5047788;28;20624;-59
2022/08/05 05:15:24;;;;;;;;;;;17.60;99.90;;;;;;5046534;28;19923;-59
2022/08/05 05:17:50;;;;;;;;;;;17.70;99.90;;;;;;5044605;28;19917;-59
2022/08/05 05:20:15;;;;;;;;;;;17.70;99.90;;;;;;5016538;28;19925;-59
2022/08/05 05:22:41;;;;;;;;;;;17.70;99.90;;;;;;5041365;28;19971;-60
2022/08/05 05:25:08;;;;;;;;;;;17.80;99.90;;;;;;5044261;28;19925;-60
2022/08/05 05:27:34;;;;;;;;;;;17.80;99.90;;;;;;5046768;28;19916;-60
2022/08/05 05:30:00;;;;;;;;;;;17.80;99.90;;;;;;5045199;28;19924;-59
2022/08/05 05:32:25;;;;;;;;;;;17.80;99.90;;;;;;5023470;28;19925;-59
2022/08/05 05:34:51;;;;;;;;;;;17.80;99.90;;;;;;5044024;28;19916;-60
2022/08/05 05:37:16;;;;;;;;;;;17.90;99.90;;;;;;5042085;28;19970;-59
2022/08/05 05:39:42;;;;;;;;;;;17.90;99.90;;;;;;5050241;28;19940;-60
2022/08/05 05:42:07;;;;;;;;;;;17.90;99.90;;;;;;5031836;28;20015;-59
2022/08/05 05:44:33;;;;;;;;;;;18.00;99.90;;;;;;5047752;28;19971;-59
2022/08/05 05:46:59;;;;;;;;;;;18.00;99.90;;;;;;5052053;28;19970;-59
2022/08/05 05:49:25;;;;;;;;;;;18.00;99.90;;;;;;5049066;28;20034;-59
2022/08/05 05:51:50;;;;;;;;;;;17.90;99.90;;;;;;5049821;28;19943;-60
2022/08/05 05:54:16;;;;;;;;;;;18.00;99.90;;;;;;5047080;28;19921;-59
2022/08/05 05:56:41;;;;;;;;;;;18.00;99.90;;;;;;5047284;28;19928;-60
2022/08/05 05:59:07;;;;;;;;;;;18.00;99.90;;;;;;5048257;28;19958;-59
2022/08/05 06:01:33;;;;;;;;;;;18.00;99.90;;;;;;5044335;28;19920;-59
2022/08/05 06:03:58;;;;;;;;;;;17.90;99.90;;;;;;5031370;28;19920;-59
2022/08/05 06:06:24;;;;;;;;;;;17.90;99.90;;;;;;5048434;28;20434;-59
2022/08/05 06:08:49;;;;;;;;;;;17.80;99.90;;;;;;5045183;28;20003;-60
2022/08/05 06:11:15;;;;;;;;;;;17.70;99.90;;;;;;5048010;28;19921;-60
2022/08/05 06:13:40;;;;;;;;;;;17.70;99.90;;;;;;5046996;28;19951;-59
2022/08/05 06:16:06;;;;;;;;;;;17.70;99.90;;;;;;5048083;28;19926;-60
2022/08/05 06:18:32;;;;;;;;;;;17.70;99.90;;;;;;5046493;28;19952;-59
2022/08/05 06:20:57;;;;;;;;;;;17.80;99.90;;;;;;5044560;28;20360;-60
2022/08/05 06:23:23;;;;;;;;;;;17.90;99.90;;;;;;5046726;28;19917;-59
2022/08/05 06:25:50;;;;;;;;;;;17.90;99.90;;;;;;5041783;28;19931;-58
2022/08/05 06:28:15;;;;;;;;;;;18.00;99.90;;;;;;5043326;28;19923;-60
2022/08/05 06:30:41;;;;;;;;;;;18.10;99.90;;;;;;5045764;28;19921;-60
2022/08/05 06:33:06;;;;;;;;;;;18.10;99.90;;;;;;5049526;28;19927;-60
2022/08/05 06:35:32;;;;;;;;;;;18.20;99.90;;;;;;5050066;28;20419;-59
2022/08/05 06:37:57;;;;;;;;;;;18.30;99.90;;;;;;5048044;28;19917;-59
2022/08/05 06:40:23;;;;;;;;;;;18.50;99.90;;;;;;5045475;28;20004;-59
2022/08/05 06:42:49;;;;;;;;;;;18.60;99.90;;;;;;5049618;28;20405;-59
2022/08/05 06:45:14;;;;;;;;;;;18.70;99.90;;;;;;5025343;28;19966;-60
2022/08/05 06:47:40;;;;;;;;;;;18.90;99.90;;;;;;5048221;28;19925;-60
2022/08/05 06:50:05;;;;;;;;;;;19.00;99.90;;;;;;5046605;28;20552;-60
2022/08/05 06:52:31;;;;;;;;;;;19.00;99.90;;;;;;5021648;28;19923;-60
2022/08/05 06:54:56;;;;;;;;;;;19.10;99.90;;;;;;5045304;28;19968;-59
2022/08/05 06:57:22;;;;;;;;;;;19.20;99.90;;;;;;5049879;28;19916;-60
2022/08/05 06:59:47;;;;;;;;;;;19.20;99.90;;;;;;5042269;28;19927;-59
2022/08/05 07:02:13;;;;;;;;;;;19.30;99.90;;;;;;5033009;28;19921;-60
2022/08/05 07:04:38;;;;;;;;;;;19.30;99.90;;;;;;5044754;28;20019;-59
2022/08/05 07:07:04;;;;;;;;;;;19.40;99.90;;;;;;5047970;28;20019;-59
2022/08/05 07:09:29;;;;;;;;;;;19.50;99.90;;;;;;5053637;28;20352;-59
2022/08/05 07:11:55;;;;;;;;;;;19.60;99.90;;;;;;5046753;28;19916;-59
2022/08/05 07:17:05;;;;;;;;;;;19.70;99.90;;;;;;5053518;28;19921;-59
2022/08/05 07:19:30;;;;;;;;;;;19.90;99.90;;;;;;5047299;28;20315;-59
2022/08/05 07:21:56;;;;;;;;;;;19.90;99.90;;;;;;5045836;28;19929;-60
2022/08/05 07:24:22;;;;;;;;;;;20.00;99.90;;;;;;5031552;28;19928;-60
2022/08/05 07:26:48;;;;;;;;;;;20.10;99.70;;;;;;5025701;28;19921;-59
2022/08/05 07:29:13;;;;;;;;;;;20.20;99.30;;;;;;5049252;28;19957;-60
2022/08/05 07:31:39;;;;;;;;;;;20.30;99.20;;;;;;5041997;28;20012;-60
2022/08/05 07:34:05;;;;;;;;;;;20.40;98.80;;;;;;5041147;28;19974;-60
2022/08/05 07:36:32;;;;;;;;;;;20.50;98.20;;;;;;5032959;28;19924;-60
2022/08/05 07:39:06;;;;;;;;;;;20.60;97.90;;;;;;5049013;28;20544;-60
2022/08/05 07:41:31;;;;;;;;;;;20.60;97.70;;;;;;5051941;28;19925;-60
2022/08/05 07:43:57;;;;;;;;;;;20.70;96.90;;;;;;5044570;28;19916;-60
2022/08/05 07:46:27;;;;;;;;;;;20.60;96.30;;;;;;5045709;28;20284;-60
2022/08/05 07:48:53;;;;;;;;;;;20.60;96.00;;;;;;5036771;28;19964;-60
2022/08/05 07:51:19;;;;;;;;;;;20.60;95.90;;;;;;5041350;28;19947;-60
2022/08/05 07:53:44;;;;;;;;;;;20.70;95.50;;;;;;5041708;28;19920;-60
2022/08/05 07:56:10;;;;;;;;;;;20.90;95.00;;;;;;5046419;28;19921;-59
2022/08/05 07:58:35;;;;;;;;;;;21.10;94.30;;;;;;5040434;28;19925;-60
2022/08/05 08:01:01;;;;;;;;;;;21.20;94.10;;;;;;5048212;28;19990;-60
2022/08/05 08:03:26;;;;;;;;;;;21.30;94.10;;;;;;5048145;28;19956;-60
2022/08/05 08:05:52;;;;;;;;;;;21.30;94.10;;;;;;5046336;28;19916;-60
2022/08/05 08:08:18;;;;;;;;;;;21.40;94.10;;;;;;5048404;28;19970;-59
2022/08/05 08:10:43;;;;;;;;;;;21.40;92.90;;;;;;5031245;28;20289;-61
2022/08/05 08:13:09;;;;;;;;;;;21.40;92.20;;;;;;5044121;28;19955;-60
2022/08/05 08:15:35;;;;;;;;;;;21.50;91.70;;;;;;5028173;28;20414;-60
2022/08/05 08:18:00;;;;;;;;;;;21.40;92.10;;;;;;5050822;28;19920;-61
2022/08/05 08:20:26;;;;;;;;;;;21.30;92.00;;;;;;5043670;28;19974;-61
2022/08/05 08:22:52;;;;;;;;;;;21.60;92.00;;;;;;5047057;28;19971;-61
2022/08/05 08:25:18;;;;;;;;;;;22.20;91.10;;;;;;5042954;28;19916;-61
2022/08/05 08:27:44;;;;;;;;;;;22.70;90.00;;;;;;5045424;28;20043;-61
2022/08/05 08:30:12;;;;;;;;;;;23.10;87.20;;;;;;5049891;28;19916;-61
2022/08/05 08:32:38;;;;;;;;;;;23.30;86.00;;;;;;5047800;28;19920;-61
2022/08/05 08:35:04;;;;;;;;;;;23.40;82.70;;;;;;5046150;28;19927;-61
2022/08/05 08:37:29;;;;;;;;;;;23.30;84.20;;;;;;5045075;28;22369;-61
2022/08/05 08:39:55;;;;;;;;;;;23.20;83.30;;;;;;5032998;28;20388;-61
2022/08/05 08:42:21;;;;;;;;;;;23.20;84.10;;;;;;5048661;28;19920;-61
2022/08/05 08:44:46;;;;;;;;;;;23.20;79.80;;;;;;5040988;28;19924;-61
2022/08/05 08:47:13;;;;;;;;;;;23.10;80.90;;;;;;5048228;28;19916;-61
2022/08/05 08:49:41;;;;;;;;;;;23.10;82.30;;;;;;5028025;28;19928;-61
2022/08/05 08:52:16;;;;;;;;;;;23.00;82.20;;;;;;5048156;28;19970;-61
2022/08/05 08:54:42;;;;;;;;;;;23.30;82.30;;;;;;5049330;28;20324;-59
2022/08/05 08:57:07;;;;;;;;;;;23.50;81.10;;;;;;5047948;28;19971;-60
2022/08/05 08:59:33;;;;;;;;;;;23.40;77.70;;;;;;5047796;28;19920;-62
2022/08/05 09:02:00;;;;;;;;;;;23.20;78.30;;;;;;5049083;28;19921;-61
2022/08/05 09:04:26;;;;;;;;;;;23.10;78.30;;;;;;5046868;28;20376;-61
2022/08/05 09:06:51;;;;;;;;;;;23.00;76.30;;;;;;5046720;28;20007;-61
2022/08/05 09:09:17;;;;;;;;;;;22.90;78.90;;;;;;5048547;28;20067;-60
2022/08/05 09:11:42;;;;;;;;;;;22.90;77.90;;;;;;5050799;28;19924;-61
2022/08/05 09:14:09;;;;;;;;;;;22.80;77.20;;;;;;5049261;28;20337;-60
2022/08/05 09:16:37;;;;;;;;;;;22.70;74.90;;;;;;5048590;28;20417;-61
2022/08/05 09:19:02;;;;;;;;;;;22.80;77.60;;;;;;5049055;28;20003;-60
2022/08/05 09:21:28;;;;;;;;;;;23.00;75.40;;;;;;5046337;28;20007;-60
2022/08/05 09:24:11;;;;;;;;;;;23.10;76.70;;;;;;5050221;28;19917;-61
2022/08/05 09:26:37;;;;;;;;;;;23.10;74.30;;;;;;5043204;28;19920;-61
2022/08/05 09:29:04;;;;;;;;;;;23.00;75.40;;;;;;5051813;28;19920;-61
2022/08/05 09:31:30;;;;;;;;;;;22.90;76.20;;;;;;5054228;28;19917;-60
2022/08/05 09:33:57;;;;;;;;;;;22.90;75.40;;;;;;5048230;28;19925;-61
2022/08/05 09:36:23;;;;;;;;;;;22.90;75.60;;;;;;5051604;28;19916;-60
2022/08/05 09:38:59;;;;;;;;;;;23.10;73.20;;;;;;5053596;28;19917;-62
2022/08/05 09:41:25;;;;;;;;;;;23.20;72.00;;;;;;5035381;28;19943;-62
2022/08/05 09:43:50;;;;;;;;;;;23.60;71.80;;;;;;5023274;28;19924;-62
2022/08/05 09:46:25;;;;;;;;;;;23.80;68.00;;;;;;5044140;28;20354;-61
2022/08/05 09:48:52;;;;;;;;;;;23.90;69.10;;;;;;5048348;28;19924;-61
2022/08/05 09:51:29;;;;;;;;;;;24.00;69.60;;;;;;5050660;28;19963;-61
2022/08/05 09:53:55;;;;;;;;;;;23.90;69.60;;;;;;5048254;28;19924;-61
2022/08/05 09:56:28;;;;;;;;;;;24.00;69.40;;;;;;5052184;28;19977;-61
2022/08/05 09:58:54;;;;;;;;;;;23.90;67.00;;;;;;5031913;28;20365;-61
2022/08/05 10:01:20;;;;;;;;;;;24.20;67.00;;;;;;5047292;28;19982;-62
2022/08/05 10:03:58;;;;;;;;;;;24.60;64.80;;;;;;5049750;28;19929;-62
2022/08/05 10:06:24;;;;;;;;;;;24.80;63.70;;;;;;5049770;28;19935;-62
2022/08/05 10:08:49;;;;;;;;;;;25.10;57.30;;;;;;5043571;28;19917;-61
2022/08/05 10:11:15;;;;;;;;;;;25.60;58.90;;;;;;5004669;28;19920;-61
2022/08/05 10:13:44;;;;;;;;;;;25.80;52.00;;;;;;5049227;28;19917;-61
2022/08/05 10:16:29;;;;;;;;;;;26.30;52.80;;;;;;5049572;28;21565;-60
2022/08/05 10:18:54;;;;;;;;;;;27.60;53.70;;;;;;5046869;28;19920;-62
2022/08/05 10:21:20;;;;;;;;;;;29.40;50.40;;;;;;5045741;28;19939;-61
2022/08/05 10:23:46;;;;;;;;;;;30.10;44.90;;;;;;5051216;28;19928;-62
2022/08/05 10:26:11;;;;;;;;;;;30.50;46.50;;;;;;5043281;28;19948;-62
2022/08/05 10:28:37;;;;;;;;;;;31.50;47.10;;;;;;5046600;28;19921;-63
2022/08/05 10:31:03;;;;;;;;;;;32.30;45.70;;;;;;5036038;28;20364;-63
2022/08/05 10:33:30;;;;;;;;;;;31.60;40.60;;;;;;5040965;28;19917;-62
2022/08/05 10:35:56;;;;;;;;;;;31.60;42.20;;;;;;5036797;28;19971;-62
2022/08/05 10:38:22;;;;;;;;;;;31.70;44.60;;;;;;5026890;28;19920;-63
2022/08/05 10:40:48;;;;;;;;;;;31.20;42.20;;;;;;5051311;28;20601;-62
2022/08/05 10:43:26;;;;;;;;;;;31.20;43.00;;;;;;5045862;28;19921;-62
2022/08/05 10:45:59;;;;;;;;;;;31.20;43.00;;;;;;5046146;28;19917;-62
2022/08/05 10:48:32;;;;;;;;;;;30.70;41.20;;;;;;5049334;28;20411;-62
2022/08/05 10:51:05;;;;;;;;;;;29.80;40.70;;;;;;5051118;28;19916;-61
2022/08/05 10:53:32;;;;;;;;;;;28.90;44.60;;;;;;5049859;28;19999;-61
2022/08/05 10:56:06;;;;;;;;;;;28.20;43.00;;;;;;5029684;28;20433;-62
2022/08/05 10:58:32;;;;;;;;;;;27.10;43.80;;;;;;5044701;28;19927;-61
2022/08/05 11:00:57;;;;;;;;;;;26.90;45.80;;;;;;5026274;28;19924;-62
2022/08/05 11:03:23;;;;;;;;;;;26.40;45.10;;;;;;5047841;28;19920;-62
2022/08/05 11:06:08;;;;;;;;;;;26.20;47.90;;;;;;5045219;28;19920;-62
2022/08/05 11:08:34;;;;;;;;;;;26.00;47.80;;;;;;5048107;28;19917;-62
2022/08/05 11:11:18;;;;;;;;;;;25.80;48.70;;;;;;5048341;28;20016;-62
2022/08/05 11:13:44;;;;;;;;;;;25.50;45.90;;;;;;5048268;28;19924;-62
2022/08/05 11:16:22;;;;;;;;;;;25.20;44.90;;;;;;5048436;28;19939;-62
2022/08/05 11:19:08;;;;;;;;;;;25.00;46.00;;;;;;5049310;28;19921;-62
2022/08/05 11:21:33;;;;;;;;;;;24.70;45.40;;;;;;5050207;28;19925;-62
2022/08/05 11:24:05;;;;;;;;;;;24.90;46.20;;;;;;5052277;28;19921;-62
2022/08/05 11:26:31;;;;;;;;;;;24.80;46.20;;;;;;5045818;28;20062;-62
2022/08/05 11:28:57;;;;;;;;;;;24.80;47.10;;;;;;5050620;28;20423;-61
2022/08/05 11:31:26;;;;;;;;;;;24.80;44.20;;;;;;5051082;28;19924;-61
2022/08/05 11:33:59;;;;;;;;;;;24.80;43.50;;;;;;5051029;28;19916;-62
2022/08/05 11:36:38;;;;;;;;;;;24.90;43.90;;;;;;5047130;28;20406;-61
2022/08/05 11:39:04;;;;;;;;;;;24.90;43.30;;;;;;5051019;28;20295;-62
2022/08/05 11:41:30;;;;;;;;;;;25.00;43.70;;;;;;5050555;28;19924;-61
2022/08/05 11:44:11;;;;;;;;;;;25.10;42.00;;;;;;5051110;28;20391;-61
2022/08/05 11:46:38;;;;;;;;;;;25.10;41.30;;;;;;5033418;28;20506;-62
2022/08/05 11:49:04;;;;;;;;;;;25.10;41.60;;;;;;5049095;28;19972;-62
2022/08/05 11:51:30;;;;;;;;;;;25.30;43.00;;;;;;5030863;28;19917;-60
2022/08/05 11:53:56;;;;;;;;;;;25.50;43.00;;;;;;5032680;28;20296;-62
2022/08/05 11:56:44;;;;;;;;;;;25.80;42.70;;;;;;5120274;27;20330;-61
2022/08/05 11:59:18;;;;;;;;;;;26.00;42.30;;;;;;5114400;27;19965;-62
2022/08/05 12:01:54;;;;;;;;;;;26.30;41.30;;;;;;5119765;27;19926;-61
2022/08/05 12:04:20;;;;;;;;;;;26.30;40.70;;;;;;5125330;27;19938;-63
2022/08/05 12:06:45;;;;;;;;;;;26.40;41.30;;;;;;5115742;27;19924;-63
2022/08/05 12:09:11;;;;;;;;;;;26.50;42.20;;;;;;5150687;27;19923;-62
2022/08/05 12:11:37;;;;;;;;;;;26.40;40.90;;;;;;5121211;27;20282;-62
2022/08/05 12:14:04;;;;;;;;;;;26.60;42.30;;;;;;5125203;27;19927;-63
2022/08/05 12:16:36;;;;;;;;;;;26.60;42.70;;;;;;5126100;27;20353;-61
2022/08/05 12:19:02;;;;;;;;;;;26.70;42.20;;;;;;5107720;27;20003;-63
2022/08/05 12:21:30;;;;;;;;;;;26.90;42.40;;;;;;5115378;27;20006;-61
2022/08/05 12:24:03;;;;;;;;;;;27.00;41.70;;;;;;5125404;27;19919;-63
2022/08/05 12:26:36;;;;;;;;;;;27.00;42.30;;;;;;5119773;28;19923;-61
2022/08/05 12:29:04;;;;;;;;;;;26.80;41.90;;;;;;5105906;27;20379;-64
2022/08/05 12:31:30;;;;;;;;;;;26.80;40.60;;;;;;5122073;27;19930;-63
2022/08/05 12:33:56;;;;;;;;;;;26.90;40.40;;;;;;5109652;27;19927;-62
2022/08/05 12:36:21;;;;;;;;;;;26.70;39.80;;;;;;5116542;28;19931;-61
2022/08/05 12:38:47;;;;;;;;;;;26.80;39.70;;;;;;5123550;27;20019;-63
2022/08/05 12:41:13;;;;;;;;;;;26.90;39.10;;;;;;5126885;28;19934;-63
2022/08/05 12:43:52;;;;;;;;;;;27.50;39.70;;;;;;5120207;27;19920;-62
2022/08/05 12:46:22;;;;;;;;;;;28.00;40.50;;;;;;5103561;27;20383;-62
2022/08/05 12:48:55;;;;;;;;;;;28.60;40.60;;;;;;5104902;28;19924;-61
2022/08/05 12:51:20;;;;;;;;;;;28.70;40.60;;;;;;5106930;28;20452;-63
2022/08/05 12:53:46;;;;;;;;;;;28.10;40.90;;;;;;5105569;28;20016;-61
2022/08/05 12:56:16;;;;;;;;;;;27.80;42.50;;;;;;5103227;28;20350;-62
2022/08/05 12:58:41;;;;;;;;;;;28.30;43.50;;;;;;5107304;28;19919;-61
2022/08/05 13:01:07;;;;;;;;;;;29.50;42.60;;;;;;5103615;28;20379;-63
2022/08/05 13:03:36;;;;;;;;;;;30.60;40.60;;;;;;5104230;28;19923;-61
2022/08/05 13:06:05;;;;;;;;;;;30.00;39.60;;;;;;5098502;28;20340;-62
2022/08/05 13:08:30;;;;;;;;;;;30.20;39.80;;;;;;5087167;28;19946;-62
2022/08/05 13:11:00;;;;;;;;;;;31.40;38.80;;;;;;5092184;28;19995;-63
2022/08/05 13:13:26;;;;;;;;;;;32.00;37.20;;;;;;5087476;28;19928;-62
2022/08/05 13:15:53;;;;;;;;;;;32.80;36.70;;;;;;5090170;28;19924;-62
2022/08/05 13:18:18;;;;;;;;;;;33.00;35.50;;;;;;5090792;28;20314;-62
2022/08/05 13:20:44;;;;;;;;;;;33.60;34.90;;;;;;5089928;28;19931;-63
2022/08/05 13:23:10;;;;;;;;;;;32.20;35.00;;;;;;5093351;28;19924;-61
2022/08/05 13:25:35;;;;;;;;;;;31.50;35.40;;;;;;5089496;28;20295;-63
2022/08/05 13:28:02;;;;;;;;;;;30.20;37.10;;;;;;5089942;28;20489;-62
2022/08/05 13:30:28;;;;;;;;;;;29.20;38.00;;;;;;5093229;28;19920;-61
2022/08/05 13:32:54;;;;;;;;;;;28.80;39.60;;;;;;5088002;28;19927;-63
2022/08/05 13:35:19;;;;;;;;;;;28.30;39.90;;;;;;5090241;28;20531;-61
2022/08/05 13:37:45;;;;;;;;;;;27.70;40.60;;;;;;5091605;28;19924;-62
2022/08/05 13:40:11;;;;;;;;;;;28.00;41.70;;;;;;5091923;28;20013;-61
2022/08/05 13:42:38;;;;;;;;;;;28.00;40.70;;;;;;5086534;28;19965;-61
2022/08/05 13:45:04;;;;;;;;;;;29.40;40.00;;;;;;5091240;28;19924;-63
2022/08/05 13:47:29;;;;;;;;;;;30.20;36.80;;;;;;5092633;28;19943;-61
2022/08/05 13:49:54;;;;;;;;;;;30.60;37.20;;;;;;5087522;28;19924;-61
2022/08/05 13:52:21;;;;;;;;;;;30.70;37.00;;;;;;5089356;28;19977;-63
2022/08/05 13:54:47;;;;;;;;;;;29.90;37.60;;;;;;5090044;28;19971;-60
2022/08/05 13:57:13;;;;;;;;;;;31.00;37.70;;;;;;5090698;28;20005;-62
2022/08/05 13:59:39;;;;;;;;;;;31.20;37.20;;;;;;5095650;28;19963;-62
2022/08/05 14:02:05;;;;;;;;;;;31.10;37.70;;;;;;5086950;28;19998;-62
2022/08/05 14:07:23;;;;;;;;;;;32.60;37.10;;;;;;5089022;28;19920;-62
2022/08/05 14:09:49;;;;;;;;;;;33.30;36.60;;;;;;5084546;28;20014;-62
2022/08/05 14:12:14;;;;;;;;;;;33.60;32.20;;;;;;5093320;28;20453;-61
2022/08/05 14:14:40;;;;;;;;;;;32.50;34.40;;;;;;5121494;27;20018;-63
2022/08/05 14:17:05;;;;;;;;;;;32.00;33.60;;;;;;5096052;28;19924;-62
2022/08/05 14:19:31;;;;;;;;;;;30.90;34.20;;;;;;5088931;28;19920;-62
2022/08/05 14:21:57;;;;;;;;;;;30.20;35.90;;;;;;5090576;28;19924;-61